All
Karara Airport (Karara, Western Australia) YKAR Weather
There is no TAF data available at YKAR. Showing TAF data for YGGE (30 mi N).
YGGE Terminal Area Forecast (no data for YKAR)
| Date | Time (AWST) | Flight Rules | Wind Dir. | Speed | Type | Height AGL (ft) | Visibility | Remarks | ||||||
|---|---|---|---|---|---|---|---|---|---|---|---|---|---|---|
There is no METAR data available at YKAR. Showing METAR data for YGGE (30 mi N).
Recent YGGE METAR history (no data for YKAR)
| Date | Time (AWST) | Flight Rules | Wind Dir. | Speed | Type | Height AGL (ft) | Visibility | Temp (°C) | Temp (°F) | Dew Point (°C) | Dew Point (°F) | Rel. Humid. | Pressure | Density Altitude | Remarks |
|---|---|---|---|---|---|---|---|---|---|---|---|---|---|---|---|
| 05-May | 03:00AM | VFR | 110° | 7 kt | 10000 meters | 11° | 51° | 5° | 41° | 66% | 1023 mb | 653 ft | |||
| 05-May | 02:00AM | VFR | 110° | 7 kt | 10000 meters | 11° | 51° | 5° | 41° | 66% | 1023 mb | 653 ft | |||
| 05-May | 01:00AM | VFR | 110° | 5 kt | 10000 meters | 11° | 51° | 5° | 41° | 66% | 1024 mb | 624 ft | |||
| 05-May | 12:00AM | VFR | 90° | 6 kt | 10000 meters | 12° | 53° | 5° | 41° | 62% | 1024 mb | 744 ft | |||
| 04-May | 11:00PM | VFR | 100° | 6 kt | 10000 meters | 13° | 55° | 5° | 41° | 58% | 1024 mb | 864 ft | |||
| 04-May | 10:00PM | VFR | 80° | 6 kt | 10000 meters | 15° | 59° | 5° | 41° | 51% | 1024 mb | 1,104 ft | |||
| 04-May | 09:00PM | VFR | 120° | 6 kt | 10000 meters | 15° | 59° | 4° | 39° | 48% | 1024 mb | 1,104 ft | |||
| 04-May | 08:00PM | VFR | 100° | 5 kt | 10000 meters | 14° | 57° | 4° | 39° | 51% | 1024 mb | 984 ft | |||
| 04-May | 07:00PM | VFR | 90° | 3 kt | 10000 meters | 16° | 60° | 4° | 39° | 45% | 1023 mb | 1,253 ft | |||
| 04-May | 06:00PM | VFR | 90° | 5 kt | 10000 meters | 20° | 68° | 4° | 39° | 35% | 1023 mb | 1,733 ft | |||
| 04-May | 05:00PM | VFR | 80° | 9 kt | 10000 meters | 22° | 71° | 4° | 39° | 31% | 1023 mb | 1,973 ft | |||
| 04-May | 04:00PM | VFR | 90° | 10 kt | 10000 meters | 22° | 71° | 4° | 39° | 31% | 1022 mb | 2,003 ft | |||
| 04-May | 03:00PM | VFR | 90° | 12 kt | 10000 meters | 22° | 71° | 5° | 41° | 33% | 1022 mb | 2,003 ft | |||
| 04-May | 02:00PM | VFR | 110° | 11 kt | 10000 meters | 21° | 69° | 4° | 39° | 33% | 1023 mb | 1,853 ft | |||
| 04-May | 01:00PM | VFR | 60° | 12 kt | 10000 meters | 21° | 69° | 4° | 39° | 33% | 1023 mb | 1,853 ft | |||
| 04-May | 12:00PM | VFR | 60° | 12 kt | 10000 meters | 20° | 68° | 5° | 41° | 37% | 1025 mb | 1,674 ft | |||
| 04-May | 11:00AM | VFR | 60° | 14 kt | 10000 meters | 19° | 66° | 5° | 41° | 40% | 1025 mb | 1,554 ft | |||
| 04-May | 10:00AM | VFR | 70° | 15 kt | 10000 meters | 18° | 64° | 6° | 42° | 45% | 1026 mb | 1,405 ft | |||
| 04-May | 09:00AM | VFR | 80° | 12 kt | 10000 meters | 16° | 60° | 6° | 42° | 51% | 1027 mb | 1,135 ft | |||
| 04-May | 08:00AM | VFR | 100° | 6 kt | 10000 meters | 12° | 53° | 6° | 42° | 67% | 1026 mb | 685 ft | |||
| 04-May | 07:00AM | VFR | 130° | 7 kt | 10000 meters | 9° | 48° | 5° | 41° | 76% | 1025 mb | 354 ft | |||
| 04-May | 06:00AM | VFR | 130° | 6 kt | 10000 meters | 9° | 48° | 5° | 41° | 76% | 1025 mb | 354 ft | |||
| 04-May | 05:00AM | VFR | 120° | 7 kt | 10000 meters | 10° | 50° | 6° | 42° | 76% | 1024 mb | 504 ft | |||
| 04-May | 04:00AM | VFR | 130° | 7 kt | 10000 meters | 10° | 50° | 6° | 42° | 76% | 1024 mb | 504 ft |
Login
| Your browser is unsupported. upgrade your browser |
